sensor_id;sensor_type;location;lat;lon;timestamp;P1;durP1;ratioP1;P2;durP2;ratioP2
84864;SDS011;75122;41.650;25.368;2024-02-21T00:01:23;17.08;;;8.57;;
84864;SDS011;75122;41.650;25.368;2024-02-21T00:03:48;18.05;;;8.95;;
84864;SDS011;75122;41.650;25.368;2024-02-21T00:06:14;20.30;;;10.18;;
84864;SDS011;75122;41.650;25.368;2024-02-21T00:08:39;42.72;;;17.20;;
84864;SDS011;75122;41.650;25.368;2024-02-21T00:11:05;27.10;;;13.98;;
84864;SDS011;75122;41.650;25.368;2024-02-21T00:13:30;27.58;;;12.10;;
84864;SDS011;75122;41.650;25.368;2024-02-21T00:15:56;32.08;;;13.43;;
84864;SDS011;75122;41.650;25.368;2024-02-21T00:18:21;37.90;;;15.55;;
84864;SDS011;75122;41.650;25.368;2024-02-21T00:20:47;16.10;;;8.88;;
84864;SDS011;75122;41.650;25.368;2024-02-21T00:23:12;24.27;;;10.70;;
84864;SDS011;75122;41.650;25.368;2024-02-21T00:25:38;18.42;;;9.38;;
84864;SDS011;75122;41.650;25.368;2024-02-21T00:28:03;19.92;;;9.63;;
84864;SDS011;75122;41.650;25.368;2024-02-21T00:30:30;22.10;;;10.70;;
84864;SDS011;75122;41.650;25.368;2024-02-21T00:32:56;25.40;;;11.38;;
84864;SDS011;75122;41.650;25.368;2024-02-21T00:35:21;22.52;;;10.13;;
84864;SDS011;75122;41.650;25.368;2024-02-21T00:37:47;22.23;;;10.55;;
84864;SDS011;75122;41.650;25.368;2024-02-21T00:40:12;40.20;;;17.98;;
84864;SDS011;75122;41.650;25.368;2024-02-21T00:42:38;41.33;;;19.40;;
84864;SDS011;75122;41.650;25.368;2024-02-21T00:45:03;32.33;;;16.58;;
84864;SDS011;75122;41.650;25.368;2024-02-21T00:47:29;22.73;;;11.10;;
84864;SDS011;75122;41.650;25.368;2024-02-21T00:49:55;20.50;;;9.70;;
84864;SDS011;75122;41.650;25.368;2024-02-21T00:52:20;21.77;;;10.52;;
84864;SDS011;75122;41.650;25.368;2024-02-21T00:54:45;19.35;;;9.60;;
84864;SDS011;75122;41.650;25.368;2024-02-21T00:57:11;23.27;;;11.68;;
84864;SDS011;75122;41.650;25.368;2024-02-21T00:59:37;25.40;;;10.95;;
84864;SDS011;75122;41.650;25.368;2024-02-21T01:02:02;24.23;;;11.73;;
84864;SDS011;75122;41.650;25.368;2024-02-21T01:04:28;17.63;;;10.52;;
84864;SDS011;75122;41.650;25.368;2024-02-21T01:06:53;26.42;;;11.88;;
84864;SDS011;75122;41.650;25.368;2024-02-21T01:09:19;17.13;;;9.45;;
84864;SDS011;75122;41.650;25.368;2024-02-21T01:11:44;18.55;;;9.98;;
84864;SDS011;75122;41.650;25.368;2024-02-21T01:14:09;19.17;;;9.73;;
84864;SDS011;75122;41.650;25.368;2024-02-21T01:16:36;17.73;;;9.85;;
84864;SDS011;75122;41.650;25.368;2024-02-21T01:19:01;22.23;;;10.63;;
84864;SDS011;75122;41.650;25.368;2024-02-21T01:21:27;24.33;;;11.80;;
84864;SDS011;75122;41.650;25.368;2024-02-21T01:23:52;22.70;;;10.45;;
84864;SDS011;75122;41.650;25.368;2024-02-21T01:26:17;23.15;;;10.38;;
84864;SDS011;75122;41.650;25.368;2024-02-21T01:28:43;22.60;;;10.27;;
84864;SDS011;75122;41.650;25.368;2024-02-21T01:31:08;20.50;;;10.90;;
84864;SDS011;75122;41.650;25.368;2024-02-21T01:33:34;22.23;;;10.23;;
84864;SDS011;75122;41.650;25.368;2024-02-21T01:36:04;22.08;;;9.18;;
84864;SDS011;75122;41.650;25.368;2024-02-21T01:38:31;18.67;;;8.93;;
84864;SDS011;75122;41.650;25.368;2024-02-21T01:40:57;19.02;;;9.75;;
84864;SDS011;75122;41.650;25.368;2024-02-21T01:43:22;19.90;;;9.40;;
84864;SDS011;75122;41.650;25.368;2024-02-21T01:45:57;19.98;;;9.23;;
84864;SDS011;75122;41.650;25.368;2024-02-21T01:48:23;17.70;;;9.07;;
84864;SDS011;75122;41.650;25.368;2024-02-21T01:50:49;18.75;;;9.25;;
84864;SDS011;75122;41.650;25.368;2024-02-21T01:53:36;15.93;;;7.72;;
84864;SDS011;75122;41.650;25.368;2024-02-21T01:56:02;17.67;;;9.25;;
84864;SDS011;75122;41.650;25.368;2024-02-21T01:58:30;19.13;;;8.70;;
84864;SDS011;75122;41.650;25.368;2024-02-21T02:00:57;17.67;;;8.50;;
84864;SDS011;75122;41.650;25.368;2024-02-21T02:03:23;17.52;;;9.10;;
84864;SDS011;75122;41.650;25.368;2024-02-21T02:05:50;16.63;;;8.82;;
84864;SDS011;75122;41.650;25.368;2024-02-21T02:08:16;20.17;;;10.25;;
84864;SDS011;75122;41.650;25.368;2024-02-21T02:10:43;18.17;;;8.65;;
84864;SDS011;75122;41.650;25.368;2024-02-21T02:13:09;15.82;;;8.10;;
84864;SDS011;75122;41.650;25.368;2024-02-21T02:15:41;19.42;;;8.43;;
84864;SDS011;75122;41.650;25.368;2024-02-21T02:18:08;19.75;;;8.80;;
84864;SDS011;75122;41.650;25.368;2024-02-21T02:20:34;17.77;;;8.88;;
84864;SDS011;75122;41.650;25.368;2024-02-21T02:23:02;22.02;;;9.15;;
84864;SDS011;75122;41.650;25.368;2024-02-21T02:25:38;20.02;;;8.68;;
84864;SDS011;75122;41.650;25.368;2024-02-21T02:28:05;19.10;;;9.93;;
84864;SDS011;75122;41.650;25.368;2024-02-21T02:30:33;20.00;;;9.30;;
84864;SDS011;75122;41.650;25.368;2024-02-21T02:33:01;17.58;;;9.23;;
84864;SDS011;75122;41.650;25.368;2024-02-21T02:35:30;21.10;;;9.13;;
84864;SDS011;75122;41.650;25.368;2024-02-21T02:37:55;14.32;;;7.78;;
84864;SDS011;75122;41.650;25.368;2024-02-21T02:40:21;19.80;;;9.90;;
84864;SDS011;75122;41.650;25.368;2024-02-21T02:42:47;20.08;;;9.70;;
84864;SDS011;75122;41.650;25.368;2024-02-21T02:45:14;20.98;;;9.00;;
84864;SDS011;75122;41.650;25.368;2024-02-21T02:47:46;16.38;;;8.20;;
84864;SDS011;75122;41.650;25.368;2024-02-21T02:50:12;18.15;;;9.35;;
84864;SDS011;75122;41.650;25.368;2024-02-21T02:52:37;20.90;;;10.35;;
84864;SDS011;75122;41.650;25.368;2024-02-21T02:55:03;16.85;;;9.43;;
84864;SDS011;75122;41.650;25.368;2024-02-21T02:57:29;20.90;;;9.60;;
84864;SDS011;75122;41.650;25.368;2024-02-21T02:59:54;15.52;;;8.48;;
84864;SDS011;75122;41.650;25.368;2024-02-21T03:02:20;20.08;;;9.68;;
84864;SDS011;75122;41.650;25.368;2024-02-21T03:04:45;20.70;;;9.07;;
84864;SDS011;75122;41.650;25.368;2024-02-21T03:07:11;17.10;;;8.82;;
84864;SDS011;75122;41.650;25.368;2024-02-21T03:09:37;16.30;;;9.40;;
84864;SDS011;75122;41.650;25.368;2024-02-21T03:12:03;17.95;;;9.45;;
84864;SDS011;75122;41.650;25.368;2024-02-21T03:14:30;18.65;;;8.77;;
84864;SDS011;75122;41.650;25.368;2024-02-21T03:16:55;18.15;;;8.32;;
84864;SDS011;75122;41.650;25.368;2024-02-21T03:19:21;14.60;;;8.70;;
84864;SDS011;75122;41.650;25.368;2024-02-21T03:21:47;16.67;;;8.45;;
84864;SDS011;75122;41.650;25.368;2024-02-21T03:24:14;14.93;;;7.93;;
84864;SDS011;75122;41.650;25.368;2024-02-21T03:26:40;16.23;;;8.82;;
84864;SDS011;75122;41.650;25.368;2024-02-21T03:29:05;15.15;;;7.95;;
84864;SDS011;75122;41.650;25.368;2024-02-21T03:31:31;21.77;;;7.97;;
84864;SDS011;75122;41.650;25.368;2024-02-21T03:33:56;19.67;;;9.35;;
84864;SDS011;75122;41.650;25.368;2024-02-21T03:36:22;18.67;;;9.00;;
84864;SDS011;75122;41.650;25.368;2024-02-21T03:38:47;13.93;;;8.38;;
84864;SDS011;75122;41.650;25.368;2024-02-21T03:41:12;15.55;;;8.27;;
84864;SDS011;75122;41.650;25.368;2024-02-21T03:43:38;16.88;;;8.27;;
84864;SDS011;75122;41.650;25.368;2024-02-21T03:46:04;19.85;;;8.63;;
84864;SDS011;75122;41.650;25.368;2024-02-21T03:48:29;14.43;;;8.07;;
84864;SDS011;75122;41.650;25.368;2024-02-21T03:50:54;18.50;;;8.82;;
84864;SDS011;75122;41.650;25.368;2024-02-21T03:53:20;22.05;;;9.52;;
84864;SDS011;75122;41.650;25.368;2024-02-21T03:55:45;17.58;;;8.43;;
84864;SDS011;75122;41.650;25.368;2024-02-21T03:58:10;15.48;;;8.23;;
84864;SDS011;75122;41.650;25.368;2024-02-21T04:00:36;20.15;;;10.18;;
84864;SDS011;75122;41.650;25.368;2024-02-21T04:03:02;17.88;;;9.15;;
84864;SDS011;75122;41.650;25.368;2024-02-21T04:05:27;18.73;;;9.63;;
84864;SDS011;75122;41.650;25.368;2024-02-21T04:07:53;19.10;;;8.90;;
84864;SDS011;75122;41.650;25.368;2024-02-21T04:10:18;15.82;;;7.70;;
84864;SDS011;75122;41.650;25.368;2024-02-21T04:12:44;14.60;;;8.07;;
84864;SDS011;75122;41.650;25.368;2024-02-21T04:15:09;17.90;;;8.80;;
84864;SDS011;75122;41.650;25.368;2024-02-21T04:17:35;16.95;;;9.32;;
84864;SDS011;75122;41.650;25.368;2024-02-21T04:20:04;20.10;;;9.10;;
84864;SDS011;75122;41.650;25.368;2024-02-21T04:22:33;16.42;;;8.48;;
84864;SDS011;75122;41.650;25.368;2024-02-21T04:24:59;14.95;;;7.95;;
84864;SDS011;75122;41.650;25.368;2024-02-21T04:27:25;19.65;;;8.57;;
84864;SDS011;75122;41.650;25.368;2024-02-21T04:29:51;16.63;;;8.75;;
84864;SDS011;75122;41.650;25.368;2024-02-21T04:32:17;20.58;;;9.43;;
84864;SDS011;75122;41.650;25.368;2024-02-21T04:34:42;17.05;;;7.90;;
84864;SDS011;75122;41.650;25.368;2024-02-21T04:37:08;18.00;;;9.18;;
84864;SDS011;75122;41.650;25.368;2024-02-21T04:39:33;18.77;;;10.45;;
84864;SDS011;75122;41.650;25.368;2024-02-21T04:41:58;18.38;;;9.23;;
84864;SDS011;75122;41.650;25.368;2024-02-21T04:44:24;18.65;;;9.75;;
84864;SDS011;75122;41.650;25.368;2024-02-21T04:46:49;17.80;;;9.48;;
84864;SDS011;75122;41.650;25.368;2024-02-21T04:49:14;22.75;;;9.27;;
84864;SDS011;75122;41.650;25.368;2024-02-21T04:51:43;35.72;;;13.25;;
84864;SDS011;75122;41.650;25.368;2024-02-21T04:54:08;41.10;;;17.00;;
84864;SDS011;75122;41.650;25.368;2024-02-21T04:56:34;51.05;;;20.05;;
84864;SDS011;75122;41.650;25.368;2024-02-21T04:58:59;39.83;;;16.13;;
84864;SDS011;75122;41.650;25.368;2024-02-21T05:01:24;41.03;;;16.73;;
84864;SDS011;75122;41.650;25.368;2024-02-21T05:03:50;27.95;;;11.45;;
84864;SDS011;75122;41.650;25.368;2024-02-21T05:06:15;20.83;;;9.82;;
84864;SDS011;75122;41.650;25.368;2024-02-21T05:08:41;19.60;;;10.00;;
84864;SDS011;75122;41.650;25.368;2024-02-21T05:11:06;20.67;;;9.52;;
84864;SDS011;75122;41.650;25.368;2024-02-21T05:13:32;22.08;;;9.68;;
84864;SDS011;75122;41.650;25.368;2024-02-21T05:15:58;26.17;;;9.35;;
84864;SDS011;75122;41.650;25.368;2024-02-21T05:18:26;20.92;;;9.45;;
84864;SDS011;75122;41.650;25.368;2024-02-21T05:20:53;27.80;;;13.80;;
84864;SDS011;75122;41.650;25.368;2024-02-21T05:23:18;20.63;;;10.52;;
84864;SDS011;75122;41.650;25.368;2024-02-21T05:25:43;26.58;;;9.70;;
84864;SDS011;75122;41.650;25.368;2024-02-21T05:28:09;22.73;;;10.55;;
84864;SDS011;75122;41.650;25.368;2024-02-21T05:30:34;19.30;;;8.82;;
84864;SDS011;75122;41.650;25.368;2024-02-21T05:33:03;21.40;;;10.55;;
84864;SDS011;75122;41.650;25.368;2024-02-21T05:35:29;17.35;;;9.27;;
84864;SDS011;75122;41.650;25.368;2024-02-21T05:37:55;25.33;;;10.80;;
84864;SDS011;75122;41.650;25.368;2024-02-21T05:40:20;38.33;;;13.73;;
84864;SDS011;75122;41.650;25.368;2024-02-21T05:42:45;40.25;;;13.82;;
84864;SDS011;75122;41.650;25.368;2024-02-21T05:45:11;27.23;;;11.48;;
84864;SDS011;75122;41.650;25.368;2024-02-21T05:47:36;21.40;;;9.68;;
84864;SDS011;75122;41.650;25.368;2024-02-21T05:50:05;30.35;;;14.25;;
84864;SDS011;75122;41.650;25.368;2024-02-21T05:52:30;36.38;;;19.48;;
84864;SDS011;75122;41.650;25.368;2024-02-21T05:54:56;38.28;;;19.95;;
84864;SDS011;75122;41.650;25.368;2024-02-21T05:57:21;34.50;;;16.65;;
84864;SDS011;75122;41.650;25.368;2024-02-21T05:59:47;30.80;;;14.55;;
84864;SDS011;75122;41.650;25.368;2024-02-21T06:02:12;31.42;;;15.98;;
84864;SDS011;75122;41.650;25.368;2024-02-21T06:04:38;26.30;;;13.07;;
84864;SDS011;75122;41.650;25.368;2024-02-21T06:07:04;22.33;;;11.85;;
84864;SDS011;75122;41.650;25.368;2024-02-21T06:09:30;20.40;;;11.25;;
84864;SDS011;75122;41.650;25.368;2024-02-21T06:11:55;22.67;;;11.82;;
84864;SDS011;75122;41.650;25.368;2024-02-21T06:14:21;24.05;;;10.60;;
84864;SDS011;75122;41.650;25.368;2024-02-21T06:16:46;22.25;;;12.32;;
84864;SDS011;75122;41.650;25.368;2024-02-21T06:19:12;24.05;;;10.90;;
84864;SDS011;75122;41.650;25.368;2024-02-21T06:21:37;20.23;;;10.20;;
84864;SDS011;75122;41.650;25.368;2024-02-21T06:24:03;22.23;;;11.15;;
84864;SDS011;75122;41.650;25.368;2024-02-21T06:26:28;26.95;;;12.07;;
84864;SDS011;75122;41.650;25.368;2024-02-21T06:28:54;22.10;;;10.80;;
84864;SDS011;75122;41.650;25.368;2024-02-21T06:31:19;22.80;;;12.05;;
84864;SDS011;75122;41.650;25.368;2024-02-21T06:33:45;23.38;;;11.52;;
84864;SDS011;75122;41.650;25.368;2024-02-21T06:36:10;26.00;;;13.10;;
84864;SDS011;75122;41.650;25.368;2024-02-21T06:38:36;27.38;;;12.77;;
84864;SDS011;75122;41.650;25.368;2024-02-21T06:41:01;26.75;;;12.45;;
84864;SDS011;75122;41.650;25.368;2024-02-21T06:43:27;23.60;;;11.20;;
84864;SDS011;75122;41.650;25.368;2024-02-21T06:45:53;27.77;;;10.63;;
84864;SDS011;75122;41.650;25.368;2024-02-21T06:48:20;21.70;;;11.60;;
84864;SDS011;75122;41.650;25.368;2024-02-21T06:50:45;22.17;;;10.38;;
84864;SDS011;75122;41.650;25.368;2024-02-21T06:53:11;22.65;;;11.32;;
84864;SDS011;75122;41.650;25.368;2024-02-21T06:55:36;21.70;;;10.80;;
84864;SDS011;75122;41.650;25.368;2024-02-21T06:58:02;20.90;;;10.50;;
84864;SDS011;75122;41.650;25.368;2024-02-21T07:00:28;27.70;;;12.27;;
84864;SDS011;75122;41.650;25.368;2024-02-21T07:02:54;25.90;;;11.80;;
84864;SDS011;75122;41.650;25.368;2024-02-21T07:05:19;30.33;;;12.55;;
84864;SDS011;75122;41.650;25.368;2024-02-21T07:07:45;24.42;;;11.52;;
84864;SDS011;75122;41.650;25.368;2024-02-21T07:10:10;27.83;;;12.23;;
84864;SDS011;75122;41.650;25.368;2024-02-21T07:12:36;30.35;;;13.68;;
84864;SDS011;75122;41.650;25.368;2024-02-21T07:15:04;27.70;;;13.15;;
84864;SDS011;75122;41.650;25.368;2024-02-21T07:17:30;28.38;;;12.25;;
84864;SDS011;75122;41.650;25.368;2024-02-21T07:19:55;27.95;;;11.77;;
84864;SDS011;75122;41.650;25.368;2024-02-21T07:22:24;28.13;;;13.25;;
84864;SDS011;75122;41.650;25.368;2024-02-21T07:24:50;29.10;;;12.77;;
84864;SDS011;75122;41.650;25.368;2024-02-21T07:27:15;26.88;;;12.93;;
84864;SDS011;75122;41.650;25.368;2024-02-21T07:29:41;24.45;;;11.50;;
84864;SDS011;75122;41.650;25.368;2024-02-21T07:32:06;25.10;;;12.15;;
84864;SDS011;75122;41.650;25.368;2024-02-21T07:34:31;27.05;;;11.50;;
84864;SDS011;75122;41.650;25.368;2024-02-21T07:36:57;28.85;;;12.93;;
84864;SDS011;75122;41.650;25.368;2024-02-21T07:39:22;29.52;;;13.98;;
84864;SDS011;75122;41.650;25.368;2024-02-21T07:41:48;26.63;;;13.40;;
84864;SDS011;75122;41.650;25.368;2024-02-21T07:44:14;27.23;;;13.95;;
84864;SDS011;75122;41.650;25.368;2024-02-21T07:46:40;31.40;;;13.98;;
84864;SDS011;75122;41.650;25.368;2024-02-21T07:49:05;31.73;;;13.85;;
84864;SDS011;75122;41.650;25.368;2024-02-21T07:51:31;26.92;;;12.55;;
84864;SDS011;75122;41.650;25.368;2024-02-21T07:53:56;29.65;;;12.40;;
84864;SDS011;75122;41.650;25.368;2024-02-21T07:56:22;26.15;;;12.43;;
84864;SDS011;75122;41.650;25.368;2024-02-21T07:58:47;27.70;;;11.70;;
84864;SDS011;75122;41.650;25.368;2024-02-21T08:01:18;28.63;;;13.40;;
84864;SDS011;75122;41.650;25.368;2024-02-21T08:03:46;27.58;;;12.48;;
84864;SDS011;75122;41.650;25.368;2024-02-21T08:06:12;28.63;;;12.85;;
84864;SDS011;75122;41.650;25.368;2024-02-21T08:08:38;27.65;;;12.60;;
84864;SDS011;75122;41.650;25.368;2024-02-21T08:11:03;21.83;;;11.82;;
84864;SDS011;75122;41.650;25.368;2024-02-21T08:13:29;23.63;;;11.70;;
84864;SDS011;75122;41.650;25.368;2024-02-21T08:15:54;25.95;;;13.82;;
84864;SDS011;75122;41.650;25.368;2024-02-21T08:18:20;26.65;;;13.25;;
84864;SDS011;75122;41.650;25.368;2024-02-21T08:20:45;25.65;;;13.30;;
84864;SDS011;75122;41.650;25.368;2024-02-21T08:23:10;23.38;;;12.13;;
84864;SDS011;75122;41.650;25.368;2024-02-21T08:25:36;29.45;;;13.35;;
84864;SDS011;75122;41.650;25.368;2024-02-21T08:28:01;25.67;;;12.00;;
84864;SDS011;75122;41.650;25.368;2024-02-21T08:30:27;29.23;;;14.38;;
84864;SDS011;75122;41.650;25.368;2024-02-21T08:32:52;74.82;;;41.53;;
84864;SDS011;75122;41.650;25.368;2024-02-21T08:35:21;28.35;;;14.35;;
84864;SDS011;75122;41.650;25.368;2024-02-21T08:37:47;95.88;;;50.17;;
84864;SDS011;75122;41.650;25.368;2024-02-21T08:40:13;38.83;;;19.98;;
84864;SDS011;75122;41.650;25.368;2024-02-21T08:42:42;23.50;;;12.30;;
84864;SDS011;75122;41.650;25.368;2024-02-21T08:45:09;24.02;;;12.27;;
84864;SDS011;75122;41.650;25.368;2024-02-21T08:47:34;29.23;;;13.15;;
84864;SDS011;75122;41.650;25.368;2024-02-21T08:50:03;26.90;;;12.23;;
84864;SDS011;75122;41.650;25.368;2024-02-21T08:52:28;24.95;;;11.90;;
84864;SDS011;75122;41.650;25.368;2024-02-21T08:54:54;24.38;;;11.80;;
84864;SDS011;75122;41.650;25.368;2024-02-21T08:57:19;23.85;;;10.50;;
84864;SDS011;75122;41.650;25.368;2024-02-21T08:59:45;29.80;;;11.23;;
84864;SDS011;75122;41.650;25.368;2024-02-21T09:02:12;22.40;;;10.35;;
84864;SDS011;75122;41.650;25.368;2024-02-21T09:04:38;26.40;;;11.00;;
84864;SDS011;75122;41.650;25.368;2024-02-21T09:07:03;22.67;;;11.38;;
84864;SDS011;75122;41.650;25.368;2024-02-21T09:09:29;21.70;;;10.05;;
84864;SDS011;75122;41.650;25.368;2024-02-21T09:11:54;20.73;;;9.52;;
84864;SDS011;75122;41.650;25.368;2024-02-21T09:14:19;16.83;;;9.30;;
84864;SDS011;75122;41.650;25.368;2024-02-21T09:16:45;19.45;;;9.85;;
84864;SDS011;75122;41.650;25.368;2024-02-21T09:19:10;18.90;;;9.25;;
84864;SDS011;75122;41.650;25.368;2024-02-21T09:21:39;20.83;;;11.20;;
84864;SDS011;75122;41.650;25.368;2024-02-21T09:24:07;28.30;;;12.00;;
84864;SDS011;75122;41.650;25.368;2024-02-21T09:26:33;20.13;;;10.38;;
84864;SDS011;75122;41.650;25.368;2024-02-21T09:28:58;19.23;;;9.77;;
84864;SDS011;75122;41.650;25.368;2024-02-21T09:31:24;22.17;;;10.43;;
84864;SDS011;75122;41.650;25.368;2024-02-21T09:33:50;24.35;;;10.60;;
84864;SDS011;75122;41.650;25.368;2024-02-21T09:36:15;24.33;;;11.20;;
84864;SDS011;75122;41.650;25.368;2024-02-21T09:38:41;19.30;;;9.52;;
84864;SDS011;75122;41.650;25.368;2024-02-21T09:43:34;17.92;;;9.77;;
84864;SDS011;75122;41.650;25.368;2024-02-21T09:46:04;21.08;;;9.70;;
84864;SDS011;75122;41.650;25.368;2024-02-21T09:51:49;22.30;;;12.23;;
84864;SDS011;75122;41.650;25.368;2024-02-21T09:54:18;19.05;;;9.65;;
84864;SDS011;75122;41.650;25.368;2024-02-21T09:56:46;23.33;;;11.27;;
84864;SDS011;75122;41.650;25.368;2024-02-21T09:59:12;21.90;;;11.05;;
84864;SDS011;75122;41.650;25.368;2024-02-21T10:01:39;23.17;;;11.98;;
84864;SDS011;75122;41.650;25.368;2024-02-21T10:04:05;41.10;;;22.30;;
84864;SDS011;75122;41.650;25.368;2024-02-21T10:06:30;22.55;;;10.88;;
84864;SDS011;75122;41.650;25.368;2024-02-21T10:08:56;23.95;;;12.25;;
84864;SDS011;75122;41.650;25.368;2024-02-21T10:11:22;19.70;;;10.18;;
84864;SDS011;75122;41.650;25.368;2024-02-21T10:13:48;18.25;;;9.50;;
84864;SDS011;75122;41.650;25.368;2024-02-21T10:16:14;18.27;;;10.18;;
84864;SDS011;75122;41.650;25.368;2024-02-21T10:18:40;24.30;;;11.45;;
84864;SDS011;75122;41.650;25.368;2024-02-21T10:21:06;19.67;;;9.82;;
84864;SDS011;75122;41.650;25.368;2024-02-21T10:23:45;20.65;;;10.60;;
84864;SDS011;75122;41.650;25.368;2024-02-21T10:26:14;23.40;;;10.90;;
84864;SDS011;75122;41.650;25.368;2024-02-21T10:28:40;23.55;;;10.82;;
84864;SDS011;75122;41.650;25.368;2024-02-21T10:31:11;19.95;;;11.00;;
84864;SDS011;75122;41.650;25.368;2024-02-21T10:33:37;24.35;;;12.40;;
84864;SDS011;75122;41.650;25.368;2024-02-21T10:36:09;19.40;;;10.00;;
84864;SDS011;75122;41.650;25.368;2024-02-21T10:38:36;20.02;;;9.70;;
84864;SDS011;75122;41.650;25.368;2024-02-21T10:41:03;21.70;;;11.18;;
84864;SDS011;75122;41.650;25.368;2024-02-21T10:43:30;19.35;;;10.15;;
84864;SDS011;75122;41.650;25.368;2024-02-21T10:46:04;18.08;;;8.93;;
84864;SDS011;75122;41.650;25.368;2024-02-21T10:48:33;30.35;;;14.25;;
84864;SDS011;75122;41.650;25.368;2024-02-21T10:51:17;31.52;;;14.07;;
84864;SDS011;75122;41.650;25.368;2024-02-21T10:56:29;21.40;;;10.73;;
84864;SDS011;75122;41.650;25.368;2024-02-21T10:59:02;16.05;;;8.95;;
84864;SDS011;75122;41.650;25.368;2024-02-21T11:01:29;16.65;;;9.05;;
84864;SDS011;75122;41.650;25.368;2024-02-21T11:04:00;17.27;;;9.50;;
84864;SDS011;75122;41.650;25.368;2024-02-21T11:06:42;17.50;;;8.85;;
84864;SDS011;75122;41.650;25.368;2024-02-21T11:09:08;15.10;;;9.45;;
84864;SDS011;75122;41.650;25.368;2024-02-21T11:11:39;16.75;;;10.13;;
84864;SDS011;75122;41.650;25.368;2024-02-21T11:14:09;17.88;;;9.95;;
84864;SDS011;75122;41.650;25.368;2024-02-21T11:16:53;15.77;;;8.88;;
84864;SDS011;75122;41.650;25.368;2024-02-21T11:21:47;14.07;;;8.10;;
84864;SDS011;75122;41.650;25.368;2024-02-21T11:24:14;15.38;;;9.13;;
84864;SDS011;75122;41.650;25.368;2024-02-21T11:26:50;16.98;;;9.32;;
84864;SDS011;75122;41.650;25.368;2024-02-21T11:29:15;14.68;;;9.02;;
84864;SDS011;75122;41.650;25.368;2024-02-21T11:31:48;16.33;;;8.60;;
84864;SDS011;75122;41.650;25.368;2024-02-21T11:34:17;15.23;;;8.70;;
84864;SDS011;75122;41.650;25.368;2024-02-21T11:36:47;18.35;;;8.80;;
84864;SDS011;75122;41.650;25.368;2024-02-21T11:39:21;15.90;;;8.27;;
84864;SDS011;75122;41.650;25.368;2024-02-21T11:42:02;18.42;;;9.40;;
84864;SDS011;75122;41.650;25.368;2024-02-21T11:44:28;18.83;;;9.65;;
84864;SDS011;75122;41.650;25.368;2024-02-21T11:46:54;11.48;;;6.63;;
84864;SDS011;75122;41.650;25.368;2024-02-21T11:49:20;13.88;;;6.65;;
84864;SDS011;75122;41.650;25.368;2024-02-21T11:51:45;13.20;;;7.70;;
84864;SDS011;75122;41.650;25.368;2024-02-21T11:54:11;12.23;;;6.93;;
84864;SDS011;75122;41.650;25.368;2024-02-21T11:56:38;13.23;;;7.47;;
84864;SDS011;75122;41.650;25.368;2024-02-21T11:59:04;13.98;;;8.30;;
84864;SDS011;75122;41.650;25.368;2024-02-21T12:01:31;13.32;;;7.25;;
84864;SDS011;75122;41.650;25.368;2024-02-21T12:03:57;13.07;;;7.47;;
84864;SDS011;75122;41.650;25.368;2024-02-21T12:06:22;13.40;;;8.00;;
84864;SDS011;75122;41.650;25.368;2024-02-21T12:08:48;11.75;;;6.70;;
84864;SDS011;75122;41.650;25.368;2024-02-21T12:11:18;11.93;;;7.22;;
84864;SDS011;75122;41.650;25.368;2024-02-21T12:13:45;13.93;;;8.07;;
84864;SDS011;75122;41.650;25.368;2024-02-21T12:16:14;12.40;;;7.28;;
84864;SDS011;75122;41.650;25.368;2024-02-21T12:18:40;12.93;;;6.97;;
84864;SDS011;75122;41.650;25.368;2024-02-21T12:21:05;10.90;;;6.63;;
84864;SDS011;75122;41.650;25.368;2024-02-21T12:23:31;10.95;;;6.78;;
84864;SDS011;75122;41.650;25.368;2024-02-21T12:25:58;10.88;;;6.75;;
84864;SDS011;75122;41.650;25.368;2024-02-21T12:28:24;11.20;;;6.32;;
84864;SDS011;75122;41.650;25.368;2024-02-21T12:30:49;11.98;;;6.60;;
84864;SDS011;75122;41.650;25.368;2024-02-21T12:33:15;8.40;;;6.00;;
84864;SDS011;75122;41.650;25.368;2024-02-21T12:35:40;10.32;;;5.45;;
84864;SDS011;75122;41.650;25.368;2024-02-21T12:38:06;9.63;;;5.80;;
84864;SDS011;75122;41.650;25.368;2024-02-21T12:40:31;10.48;;;6.15;;
84864;SDS011;75122;41.650;25.368;2024-02-21T12:43:00;8.63;;;6.18;;
84864;SDS011;75122;41.650;25.368;2024-02-21T12:45:28;10.90;;;6.22;;
84864;SDS011;75122;41.650;25.368;2024-02-21T12:47:54;10.43;;;6.25;;
84864;SDS011;75122;41.650;25.368;2024-02-21T12:50:19;10.00;;;5.75;;
84864;SDS011;75122;41.650;25.368;2024-02-21T12:52:45;15.27;;;7.45;;
84864;SDS011;75122;41.650;25.368;2024-02-21T12:55:11;14.85;;;7.65;;
84864;SDS011;75122;41.650;25.368;2024-02-21T12:57:38;13.95;;;7.68;;
84864;SDS011;75122;41.650;25.368;2024-02-21T13:00:03;11.50;;;7.18;;
84864;SDS011;75122;41.650;25.368;2024-02-21T13:02:33;10.85;;;6.32;;
84864;SDS011;75122;41.650;25.368;2024-02-21T13:04:58;22.80;;;9.40;;
84864;SDS011;75122;41.650;25.368;2024-02-21T13:07:25;13.55;;;8.68;;
84864;SDS011;75122;41.650;25.368;2024-02-21T13:09:50;10.13;;;6.32;;
84864;SDS011;75122;41.650;25.368;2024-02-21T13:12:16;10.00;;;6.00;;
84864;SDS011;75122;41.650;25.368;2024-02-21T13:14:41;18.92;;;9.18;;
84864;SDS011;75122;41.650;25.368;2024-02-21T13:17:08;19.50;;;9.40;;
84864;SDS011;75122;41.650;25.368;2024-02-21T13:19:34;21.48;;;9.90;;
84864;SDS011;75122;41.650;25.368;2024-02-21T13:22:00;15.23;;;7.68;;
84864;SDS011;75122;41.650;25.368;2024-02-21T13:24:25;11.32;;;6.75;;
84864;SDS011;75122;41.650;25.368;2024-02-21T13:26:51;14.35;;;6.70;;
84864;SDS011;75122;41.650;25.368;2024-02-21T13:29:16;15.45;;;6.75;;
84864;SDS011;75122;41.650;25.368;2024-02-21T13:31:42;9.10;;;5.30;;
84864;SDS011;75122;41.650;25.368;2024-02-21T13:34:07;9.57;;;5.80;;
84864;SDS011;75122;41.650;25.368;2024-02-21T13:36:33;13.93;;;5.95;;
84864;SDS011;75122;41.650;25.368;2024-02-21T13:38:59;10.00;;;6.10;;
84864;SDS011;75122;41.650;25.368;2024-02-21T13:41:24;9.57;;;5.43;;
84864;SDS011;75122;41.650;25.368;2024-02-21T13:43:50;23.88;;;11.90;;
84864;SDS011;75122;41.650;25.368;2024-02-21T13:46:15;10.10;;;5.68;;
84864;SDS011;75122;41.650;25.368;2024-02-21T13:48:41;10.27;;;6.10;;
84864;SDS011;75122;41.650;25.368;2024-02-21T13:51:06;9.85;;;5.53;;
84864;SDS011;75122;41.650;25.368;2024-02-21T13:53:31;9.93;;;5.35;;
84864;SDS011;75122;41.650;25.368;2024-02-21T13:55:59;10.15;;;5.30;;
84864;SDS011;75122;41.650;25.368;2024-02-21T13:58:24;9.27;;;5.22;;
84864;SDS011;75122;41.650;25.368;2024-02-21T14:00:51;8.05;;;5.45;;
84864;SDS011;75122;41.650;25.368;2024-02-21T14:03:16;9.75;;;5.00;;
84864;SDS011;75122;41.650;25.368;2024-02-21T14:05:43;8.15;;;4.78;;
84864;SDS011;75122;41.650;25.368;2024-02-21T14:08:08;7.70;;;4.95;;
84864;SDS011;75122;41.650;25.368;2024-02-21T14:10:34;6.55;;;4.65;;
84864;SDS011;75122;41.650;25.368;2024-02-21T14:12:59;8.90;;;5.32;;
84864;SDS011;75122;41.650;25.368;2024-02-21T14:15:25;8.13;;;4.93;;
84864;SDS011;75122;41.650;25.368;2024-02-21T14:17:51;9.68;;;5.60;;
84864;SDS011;75122;41.650;25.368;2024-02-21T14:20:16;13.15;;;7.35;;
84864;SDS011;75122;41.650;25.368;2024-02-21T14:22:41;10.23;;;6.00;;